Time;durP1;ratioP1;P1;durP2;ratioP2;P2;SDS_P1;SDS_P2;PMS_P1;PMS_P2;Temp;Humidity;BMP_temperature;BMP_pressure;BME280_temperature;BME280_humidity;BME280_pressure;Samples;Min_cycle;Max_cycle;Signal;HPM_P1;HPM_P2
2023/05/30 00:00:49;;;;;;;5.63;4.70;;;;;;;17.14;89.98;100540.50;5055103;28;20224;-75
2023/05/30 00:03:14;;;;;;;7.27;4.90;;;;;;;17.13;90.17;100549.25;5069407;28;20188;-74
2023/05/30 00:05:40;;;;;;;6.30;4.90;;;;;;;17.13;90.33;100547.47;5070586;28;20191;-74
2023/05/30 00:08:06;;;;;;;6.43;5.43;;;;;;;17.11;90.37;100549.28;5070542;28;20301;-75
2023/05/30 00:10:31;;;;;;;6.37;4.43;;;;;;;17.06;90.51;100549.44;5070191;28;20208;-74
2023/05/30 00:12:57;;;;;;;6.77;4.90;;;;;;;17.05;91.28;100546.88;5070124;28;20181;-73
2023/05/30 00:15:24;;;;;;;5.13;4.63;;;;;;;16.95;90.87;100558.50;5070852;28;20250;-74
2023/05/30 00:17:52;;;;;;;8.60;5.33;;;;;;;16.99;90.84;100558.41;5069656;28;20273;-74
2023/05/30 00:20:17;;;;;;;5.80;4.90;;;;;;;16.97;90.62;100561.94;5069039;28;20273;-74
2023/05/30 00:22:43;;;;;;;5.77;5.13;;;;;;;16.85;90.96;100566.63;5069273;28;20189;-73
2023/05/30 00:25:09;;;;;;;5.50;4.80;;;;;;;16.87;90.73;100571.78;5069880;28;20195;-75
2023/05/30 00:27:34;;;;;;;7.33;5.20;;;;;;;16.92;90.33;100575.13;5070267;28;20320;-74
2023/05/30 00:29:59;;;;;;;5.30;4.80;;;;;;;16.85;90.41;100568.41;5070302;28;20630;-74
2023/05/30 00:32:25;;;;;;;7.27;4.97;;;;;;;16.84;90.59;100572.75;5069741;28;20188;-73
2023/05/30 00:34:50;;;;;;;7.47;4.60;;;;;;;16.74;91.41;100574.78;5071592;28;20522;-75
2023/05/30 00:37:16;;;;;;;7.00;5.03;;;;;;;16.79;91.36;100577.25;5069083;28;20189;-75
2023/05/30 00:39:41;;;;;;;6.53;5.07;;;;;;;16.76;91.75;100583.44;5068043;28;20197;-74
2023/05/30 00:42:07;;;;;;;5.53;4.67;;;;;;;16.72;91.69;100586.19;5072511;28;20185;-73
2023/05/30 00:44:32;;;;;;;6.00;4.97;;;;;;;16.74;91.52;100587.00;5068752;28;20188;-74
2023/05/30 00:46:58;;;;;;;6.90;5.13;;;;;;;16.65;92.01;100588.13;5070592;28;20249;-74
2023/05/30 00:49:25;;;;;;;4.73;4.33;;;;;;;16.61;92.48;100592.59;5064618;28;20201;-74
2023/05/30 00:51:50;;;;;;;5.30;4.50;;;;;;;16.61;92.35;100589.13;5070494;28;20197;-74
2023/05/30 00:54:16;;;;;;;6.67;5.03;;;;;;;16.54;92.73;100593.66;5068307;28;20181;-74
2023/05/30 00:56:41;;;;;;;6.80;4.93;;;;;;;16.51;92.98;100588.53;5071099;28;20212;-74
2023/05/30 00:59:07;;;;;;;5.80;5.00;;;;;;;16.53;92.21;100591.13;5069028;28;20314;-74
2023/05/30 01:01:32;;;;;;;6.53;5.37;;;;;;;16.46;92.77;100590.44;5068007;28;20399;-74
2023/05/30 01:03:59;;;;;;;6.73;5.17;;;;;;;16.46;92.63;100590.44;5073055;28;20237;-73
2023/05/30 01:06:27;;;;;;;5.17;4.67;;;;;;;16.43;92.66;100591.34;5065392;28;20220;-73
2023/05/30 01:08:54;;;;;;;5.57;4.97;;;;;;;16.37;93.16;100602.00;5068412;28;20221;-74
2023/05/30 01:11:46;;;;;;;5.93;5.33;;;;;;;16.30;93.49;100590.88;5070715;28;20279;-74
2023/05/30 01:14:41;;;;;;;5.97;5.00;;;;;;;16.17;93.77;100586.00;5070132;28;20189;-73
2023/05/30 01:17:49;;;;;;;6.00;5.07;;;;;;;16.12;94.07;100594.81;5065422;28;20185;-74
2023/05/30 01:20:18;;;;;;;5.77;5.17;;;;;;;15.99;94.93;100591.69;5069136;28;20293;-74
2023/05/30 01:23:00;;;;;;;6.20;4.90;;;;;;;15.98;95.26;100591.72;5070736;28;20208;-74
2023/05/30 01:25:38;;;;;;;5.33;4.83;;;;;;;15.92;95.59;100586.69;5068959;28;20188;-72
2023/05/30 01:28:10;;;;;;;6.53;5.00;;;;;;;15.91;95.51;100588.41;5069330;28;20587;-75
2023/05/30 01:30:40;;;;;;;6.30;5.17;;;;;;;15.88;95.94;100579.81;5067684;28;20788;-74
2023/05/30 01:33:07;;;;;;;5.93;5.33;;;;;;;15.89;96.10;100584.16;5070310;28;20189;-74
2023/05/30 01:35:33;;;;;;;6.23;4.90;;;;;;;15.80;96.19;100578.25;5071741;28;20187;-75
2023/05/30 01:37:58;;;;;;;8.37;5.37;;;;;;;15.74;96.56;100575.78;5069427;28;20215;-73
2023/05/30 01:40:26;;;;;;;6.23;5.63;;;;;;;15.75;96.33;100569.69;5067423;28;21129;-74
2023/05/30 01:43:01;;;;;;;7.57;5.50;;;;;;;15.67;96.86;100569.00;5067709;28;20197;-74
2023/05/30 01:45:47;;;;;;;7.03;5.50;;;;;;;15.65;97.42;100573.44;5062614;28;20187;-74
2023/05/30 01:48:24;;;;;;;7.60;5.20;;;;;;;15.68;97.59;100575.94;5068843;28;20223;-73
2023/05/30 01:50:51;;;;;;;6.77;5.30;;;;;;;15.63;98.03;100568.22;5070697;28;20204;-73
2023/05/30 01:53:31;;;;;;;7.13;5.50;;;;;;;15.64;98.60;100579.53;5067799;28;20656;-74
2023/05/30 01:56:00;;;;;;;5.30;4.67;;;;;;;15.67;98.84;100576.84;5053198;28;20184;-74
2023/05/30 01:58:27;;;;;;;8.43;5.60;;;;;;;15.63;99.27;100576.06;5068121;28;20193;-75
2023/05/30 02:00:54;;;;;;;6.70;5.40;;;;;;;15.62;99.49;100581.34;5054628;28;20575;-74
2023/05/30 02:03:22;;;;;;;7.03;5.40;;;;;;;15.59;99.52;100579.63;5068395;28;20209;-74
2023/05/30 02:05:47;;;;;;;7.87;5.70;;;;;;;15.56;98.99;100579.75;5066891;28;20373;-74
2023/05/30 02:08:13;;;;;;;8.80;5.50;;;;;;;15.53;98.89;100572.81;5051622;28;20620;-73
2023/05/30 02:10:38;;;;;;;5.87;5.37;;;;;;;15.45;99.90;100581.72;5068022;28;20213;-74
2023/05/30 02:13:03;;;;;;;6.13;5.27;;;;;;;15.46;99.33;100584.31;5071488;28;20195;-75
2023/05/30 02:15:29;;;;;;;6.53;5.13;;;;;;;15.53;98.91;100578.03;5052438;28;20302;-74
2023/05/30 02:17:55;;;;;;;8.20;5.60;;;;;;;15.51;98.67;100584.19;5053147;28;20185;-73
2023/05/30 02:20:20;;;;;;;6.37;5.13;;;;;;;15.46;98.96;100586.06;5071232;28;20216;-75
2023/05/30 02:22:46;;;;;;;9.43;5.20;;;;;;;15.42;99.19;100579.22;5071268;28;20203;-73
2023/05/30 02:25:11;;;;;;;6.00;4.63;;;;;;;15.42;99.02;100580.06;5069097;28;20217;-74
2023/05/30 02:27:36;;;;;;;6.17;4.93;;;;;;;15.45;98.64;100585.22;5074254;28;20216;-75
2023/05/30 02:30:02;;;;;;;7.97;5.37;;;;;;;15.44;99.19;100595.66;5069330;28;20727;-74
2023/05/30 02:32:27;;;;;;;7.97;5.57;;;;;;;15.39;99.11;100593.16;5069442;28;20721;-73
2023/05/30 02:34:52;;;;;;;7.80;5.17;;;;;;;15.38;99.09;100591.47;5067289;28;20204;-74
2023/05/30 02:37:18;;;;;;;6.50;4.60;;;;;;;15.32;99.18;100589.84;5068656;28;20414;-73
2023/05/30 02:39:43;;;;;;;8.20;5.40;;;;;;;15.38;98.48;100581.91;5069296;28;20237;-73
2023/05/30 02:42:08;;;;;;;8.50;5.27;;;;;;;15.29;98.84;100589.09;5069278;28;20189;-74
2023/05/30 02:44:33;;;;;;;8.53;5.60;;;;;;;15.22;99.07;100580.56;5069295;28;20608;-73
2023/05/30 02:46:59;;;;;;;7.40;5.27;;;;;;;15.23;98.83;100580.50;5070639;28;20183;-73
2023/05/30 02:49:25;;;;;;;7.27;5.10;;;;;;;15.27;98.67;100596.94;5069013;28;20211;-73
2023/05/30 02:51:50;;;;;;;7.20;4.83;;;;;;;15.15;99.17;100590.25;5068461;28;20191;-73
2023/05/30 02:54:16;;;;;;;7.77;5.40;;;;;;;15.17;99.61;100592.81;5071094;28;20711;-75
2023/05/30 02:56:41;;;;;;;11.27;5.20;;;;;;;15.22;99.53;100594.44;5097264;28;20191;-75
2023/05/30 02:59:06;;;;;;;9.53;5.67;;;;;;;15.16;99.37;100591.09;5095193;28;20200;-75
2023/05/30 03:01:32;;;;;;;8.57;5.50;;;;;;;15.08;100.00;100586.06;5090052;28;22040;-74
2023/05/30 03:03:57;;;;;;;8.77;5.70;;;;;;;15.03;100.00;100595.75;5069180;28;20222;-73
2023/05/30 03:06:24;;;;;;;7.70;5.50;;;;;;;14.91;100.00;100604.69;5068887;28;20256;-74
2023/05/30 03:08:57;;;;;;;8.27;5.90;;;;;;;14.98;100.00;100606.25;5067892;28;21257;-74
2023/05/30 03:11:22;;;;;;;9.00;5.60;;;;;;;14.96;100.00;100596.78;5068402;28;20260;-74
2023/05/30 03:13:48;;;;;;;9.40;5.93;;;;;;;14.96;100.00;100599.38;5075012;28;20187;-73
2023/05/30 03:16:13;;;;;;;6.90;4.97;;;;;;;14.85;100.00;100607.44;5071579;28;20191;-74
2023/05/30 03:18:39;;;;;;;9.87;5.27;;;;;;;14.88;100.00;100603.03;5071113;28;20222;-73
2023/05/30 03:21:05;;;;;;;7.27;5.00;;;;;;;14.86;100.00;100611.75;5074271;28;20292;-74
2023/05/30 03:23:31;;;;;;;5.90;5.13;;;;;;;14.78;100.00;100611.91;5068662;28;21968;-73
2023/05/30 03:25:56;;;;;;;8.13;5.40;;;;;;;14.75;100.00;100610.25;5056043;28;20185;-73
2023/05/30 03:28:21;;;;;;;8.43;5.20;;;;;;;14.75;100.00;100618.06;5072369;28;20951;-74
2023/05/30 03:30:46;;;;;;;11.20;5.10;;;;;;;14.77;100.00;100618.88;5049935;28;20214;-73
2023/05/30 03:33:12;;;;;;;8.00;5.87;;;;;;;14.68;100.00;100626.88;5071558;28;20182;-73
2023/05/30 03:35:37;;;;;;;9.13;5.17;;;;;;;14.53;100.00;100615.00;5052227;28;20208;-77
2023/05/30 03:38:03;;;;;;;8.40;5.63;;;;;;;14.47;100.00;100613.38;5070351;28;20598;-73
2023/05/30 03:40:28;;;;;;;7.03;4.90;;;;;;;14.45;100.00;100628.19;5053974;28;20247;-73
2023/05/30 03:42:55;;;;;;;8.37;5.40;;;;;;;14.46;100.00;100629.03;5073270;28;20211;-74
2023/05/30 03:45:20;;;;;;;9.30;5.30;;;;;;;14.38;100.00;100623.97;5072215;28;20190;-73
2023/05/30 03:47:45;;;;;;;8.17;5.33;;;;;;;14.40;100.00;100630.00;5073986;28;20216;-73
2023/05/30 03:50:11;;;;;;;13.17;5.70;;;;;;;14.51;100.00;100626.34;5068394;28;20752;-73
2023/05/30 03:52:36;;;;;;;10.70;5.50;;;;;;;14.41;100.00;100623.91;5072112;28;20590;-74
2023/05/30 03:55:02;;;;;;;12.23;6.17;;;;;;;14.37;100.00;100632.66;5072575;28;20195;-74
2023/05/30 03:57:27;;;;;;;10.40;5.27;;;;;;;14.48;100.00;100625.53;5053390;28;20184;-73
2023/05/30 03:59:53;;;;;;;10.70;5.63;;;;;;;14.51;99.74;100635.00;5070649;28;20432;-73
2023/05/30 04:02:18;;;;;;;10.40;4.80;;;;;;;14.42;100.00;100635.19;5052099;28;20181;-74
2023/05/30 04:04:43;;;;;;;11.20;5.30;;;;;;;14.46;99.53;100639.44;5052211;28;20241;-74
2023/05/30 04:07:09;;;;;;;7.33;4.90;;;;;;;14.39;99.26;100643.06;5070242;28;20196;-74
2023/05/30 04:09:34;;;;;;;5.77;4.50;;;;;;;14.39;98.94;100651.72;5052576;28;20714;-74
2023/05/30 04:12:01;;;;;;;5.70;4.43;;;;;;;14.41;98.82;100649.94;5069077;28;20181;-74
2023/05/30 04:14:26;;;;;;;9.90;5.30;;;;;;;14.45;98.33;100643.81;5072549;28;21084;-74
2023/05/30 04:16:51;;;;;;;8.50;4.57;;;;;;;14.52;97.59;100643.69;5071423;28;20238;-73
2023/05/30 04:19:17;;;;;;;9.23;5.13;;;;;;;14.57;97.32;100655.75;5068164;28;20249;-74
2023/05/30 04:21:42;;;;;;;8.10;4.60;;;;;;;14.64;97.06;100654.72;5065189;28;20194;-75
2023/05/30 04:24:07;;;;;;;6.67;4.90;;;;;;;14.66;96.85;100656.44;5071950;28;20787;-74
2023/05/30 04:26:34;;;;;;;7.77;4.97;;;;;;;14.73;96.33;100658.06;5074549;28;20271;-74
2023/05/30 04:28:59;;;;;;;10.50;4.90;;;;;;;14.83;95.75;100656.97;5070129;28;20771;-74
2023/05/30 04:31:25;;;;;;;10.67;4.90;;;;;;;14.98;94.14;100660.16;5068995;28;20197;-73
2023/05/30 04:33:51;;;;;;;10.13;4.73;;;;;;;15.01;93.73;100660.94;5065248;28;20228;-74
2023/05/30 04:36:19;;;;;;;9.17;4.83;;;;;;;15.09;93.39;100669.47;5068867;28;20188;-74
2023/05/30 04:38:48;;;;;;;8.20;5.17;;;;;;;15.20;92.64;100673.56;5064845;28;20242;-74
2023/05/30 04:41:18;;;;;;;9.93;4.90;;;;;;;15.28;91.76;100674.25;5068544;28;22557;-74
2023/05/30 04:44:00;;;;;;;7.10;4.20;;;;;;;15.35;91.53;100677.59;5067713;28;20189;-74
2023/05/30 04:46:27;;;;;;;6.63;4.50;;;;;;;15.39;90.20;100669.69;5070644;28;20188;-74
2023/05/30 04:48:55;;;;;;;6.53;4.27;;;;;;;15.40;89.19;100675.72;5068295;28;20780;-74
2023/05/30 04:51:23;;;;;;;8.23;4.40;;;;;;;15.35;88.75;100677.59;5070965;28;20216;-74
2023/05/30 04:53:49;;;;;;;7.53;4.30;;;;;;;15.31;89.47;100681.16;5070927;28;20273;-75
2023/05/30 04:56:15;;;;;;;6.53;3.77;;;;;;;15.31;89.81;100678.56;5069853;28;20600;-74
2023/05/30 04:58:40;;;;;;;10.27;4.87;;;;;;;15.37;90.18;100686.22;5070337;28;20623;-74
2023/05/30 05:01:09;;;;;;;8.60;4.40;;;;;;;15.42;89.21;100684.38;5070177;28;20204;-73
2023/05/30 05:03:35;;;;;;;6.20;3.90;;;;;;;15.50;88.88;100689.44;5068267;28;20217;-75
2023/05/30 05:06:00;;;;;;;6.37;4.20;;;;;;;15.62;88.03;100696.13;5070090;28;20211;-74
2023/05/30 05:08:27;;;;;;;8.43;4.00;;;;;;;15.78;87.21;100700.09;5072379;28;20244;-74
2023/05/30 05:10:53;;;;;;;5.60;3.73;;;;;;;15.91;85.96;100702.41;5069233;28;20202;-75
2023/05/30 05:13:18;;;;;;;9.33;4.47;;;;;;;16.04;85.72;100700.34;5072951;28;20187;-73
2023/05/30 05:15:43;;;;;;;7.97;4.43;;;;;;;16.15;84.46;100685.28;5068464;28;20197;-73
2023/05/30 05:18:10;;;;;;;7.53;4.50;;;;;;;16.25;83.92;100689.34;5068684;28;20315;-74
2023/05/30 05:20:35;;;;;;;7.63;4.00;;;;;;;16.37;83.63;100690.81;5064788;28;20844;-75
2023/05/30 05:23:01;;;;;;;8.63;4.30;;;;;;;16.41;83.30;100697.63;5067882;28;20574;-75
2023/05/30 05:25:26;;;;;;;6.30;4.03;;;;;;;16.33;82.87;100696.16;5067425;28;20225;-74
2023/05/30 05:27:51;;;;;;;7.80;4.40;;;;;;;16.39;83.29;100695.97;5049651;28;20200;-73
2023/05/30 05:30:17;;;;;;;6.00;3.97;;;;;;;16.41;83.02;100712.47;5071630;28;20739;-74
2023/05/30 05:32:43;;;;;;;8.73;4.33;;;;;;;16.49;83.07;100710.50;5070681;28;20263;-74
2023/05/30 05:35:09;;;;;;;8.27;4.07;;;;;;;16.49;82.62;100705.25;5072295;28;20217;-74
2023/05/30 05:37:35;;;;;;;6.73;4.13;;;;;;;16.46;82.47;100705.38;5068295;28;20780;-74
2023/05/30 05:40:04;;;;;;;15.60;4.60;;;;;;;16.45;82.72;100720.19;5069075;28;20202;-73
2023/05/30 05:42:29;;;;;;;7.73;3.87;;;;;;;16.51;82.44;100713.94;5072004;28;20191;-75
2023/05/30 05:44:55;;;;;;;8.80;4.60;;;;;;;16.58;82.42;100717.22;5072204;28;20252;-74
2023/05/30 05:47:20;;;;;;;6.50;3.93;;;;;;;16.66;82.41;100711.78;5069249;28;20185;-75
2023/05/30 05:49:45;;;;;;;7.97;4.17;;;;;;;16.80;82.06;100706.19;5067307;28;20215;-74
2023/05/30 05:52:10;;;;;;;10.37;4.87;;;;;;;16.95;80.75;100715.38;5073446;28;20184;-74
2023/05/30 05:54:36;;;;;;;9.97;4.27;;;;;;;17.03;81.42;100718.63;5074474;28;20271;-74
2023/05/30 05:57:01;;;;;;;7.23;4.13;;;;;;;17.16;81.23;100719.16;5069458;28;20658;-74
2023/05/30 05:59:26;;;;;;;9.63;4.70;;;;;;;17.34;80.38;100705.50;5066699;28;20216;-74
2023/05/30 06:01:52;;;;;;;8.10;4.80;;;;;;;17.54;79.64;100716.28;5065911;28;20297;-73
2023/05/30 06:04:18;;;;;;;6.70;3.87;;;;;;;17.52;78.52;100724.16;5071137;28;20660;-75
2023/05/30 06:06:44;;;;;;;7.23;4.00;;;;;;;17.43;79.33;100724.44;5070779;28;20841;-74
2023/05/30 06:09:10;;;;;;;6.60;4.00;;;;;;;17.54;78.45;100716.28;5051339;28;20265;-75
2023/05/30 06:11:35;;;;;;;7.07;3.60;;;;;;;17.49;78.36;100719.88;5065029;28;20185;-74
2023/05/30 06:14:00;;;;;;;10.33;4.43;;;;;;;17.57;78.54;100727.50;5069552;28;20185;-74
2023/05/30 06:16:26;;;;;;;8.03;4.00;;;;;;;17.55;78.44;100721.44;5064278;28;20200;-73
2023/05/30 06:18:51;;;;;;;11.20;4.37;;;;;;;17.65;78.45;100725.47;5069456;28;20284;-74
2023/05/30 06:21:17;;;;;;;8.40;4.00;;;;;;;17.73;77.64;100722.63;5066910;28;23481;-74
2023/05/30 06:23:42;;;;;;;8.00;4.27;;;;;;;17.88;77.59;100720.41;5047169;28;20185;-74
2023/05/30 06:26:07;;;;;;;8.33;4.20;;;;;;;17.86;77.70;100730.06;5069652;28;20676;-74
2023/05/30 06:28:33;;;;;;;9.23;4.00;;;;;;;17.86;77.91;100733.56;5074544;28;20267;-74
2023/05/30 06:30:58;;;;;;;6.40;4.20;;;;;;;17.95;77.95;100730.63;5071122;28;20215;-73
2023/05/30 06:33:24;;;;;;;5.63;4.07;;;;;;;17.98;78.19;100735.81;5072688;28;20199;-74
2023/05/30 06:35:49;;;;;;;10.60;4.33;;;;;;;18.15;77.93;100731.78;5072512;28;20917;-75
2023/05/30 06:38:19;;;;;;;6.43;3.97;;;;;;;18.23;77.54;100731.53;5069046;28;20730;-75
2023/05/30 06:40:44;;;;;;;6.63;4.10;;;;;;;18.21;77.55;100736.81;5071426;28;20216;-74
2023/05/30 06:43:10;;;;;;;6.33;3.90;;;;;;;18.34;77.64;100733.78;5073412;28;20186;-73
2023/05/30 06:45:35;;;;;;;7.73;4.20;;;;;;;18.48;77.22;100743.78;5073360;28;20192;-72
2023/05/30 06:48:01;;;;;;;6.83;4.13;;;;;;;18.56;77.57;100737.34;5074742;28;21117;-74
2023/05/30 06:50:27;;;;;;;7.30;4.27;;;;;;;18.68;76.39;100737.84;5058647;28;20695;-74
2023/05/30 06:52:52;;;;;;;8.57;4.20;;;;;;;18.64;76.64;100746.72;5074668;28;20192;-75
2023/05/30 06:55:17;;;;;;;6.53;3.90;;;;;;;18.55;76.86;100743.50;5072925;28;20196;-74
2023/05/30 06:57:48;;;;;;;8.47;3.97;;;;;;;18.61;76.42;100737.19;5075782;28;20189;-75
2023/05/30 07:00:15;;;;;;;10.23;3.73;;;;;;;18.58;74.84;100732.91;5074638;28;20388;-75
2023/05/30 07:02:40;;;;;;;6.27;3.93;;;;;;;18.69;76.01;100736.91;5070738;28;20238;-74
2023/05/30 07:05:06;;;;;;;7.53;4.37;;;;;;;18.65;75.08;100746.66;5070516;28;20182;-75
2023/05/30 07:07:31;;;;;;;5.10;3.60;;;;;;;18.64;75.33;100741.47;5069865;28;20230;-74
2023/05/30 07:09:56;;;;;;;6.10;4.00;;;;;;;18.65;75.21;100737.94;5072589;28;20211;-74
2023/05/30 07:12:22;;;;;;;7.07;4.10;;;;;;;18.76;74.94;100733.19;5069936;28;20222;-75
2023/05/30 07:14:47;;;;;;;11.63;4.40;;;;;;;19.04;74.32;100734.81;5070364;28;20275;-74
2023/05/30 07:17:12;;;;;;;6.57;4.03;;;;;;;19.09;73.76;100734.63;5072978;28;20205;-74
2023/05/30 07:19:39;;;;;;;6.20;3.50;;;;;;;19.12;73.84;100734.53;5071111;28;20207;-74
2023/05/30 07:22:05;;;;;;;6.20;4.07;;;;;;;19.08;73.79;100733.78;5054548;28;20245;-74
2023/05/30 07:24:31;;;;;;;17.80;5.67;;;;;;;19.23;74.16;100731.50;5054465;28;20182;-74
2023/05/30 07:26:56;;;;;;;11.67;4.27;;;;;;;19.52;72.52;100726.91;5077389;28;20177;-74
2023/05/30 07:29:21;;;;;;;126.63;18.53;;;;;;;19.82;71.86;100726.56;5072567;28;20208;-74
2023/05/30 07:31:47;;;;;;;6.73;4.13;;;;;;;19.89;71.04;100728.09;5062617;28;20196;-75
2023/05/30 07:34:12;;;;;;;6.13;3.97;;;;;;;19.91;71.45;100720.97;5067538;28;20196;-74
2023/05/30 07:36:37;;;;;;;7.23;4.00;;;;;;;20.07;70.40;100732.56;5066473;28;20195;-75
2023/05/30 07:39:03;;;;;;;9.63;3.83;;;;;;;19.55;71.71;100742.53;5070775;28;20721;-74
2023/05/30 07:41:28;;;;;;;9.47;4.07;;;;;;;19.42;71.24;100726.41;5069658;28;20190;-74
2023/05/30 07:43:54;;;;;;;6.73;3.53;;;;;;;19.60;70.39;100723.06;5069567;28;21053;-74
2023/05/30 07:46:20;;;;;;;6.47;3.60;;;;;;;19.60;70.97;100722.19;5067156;28;20189;-75
2023/05/30 07:48:45;;;;;;;6.13;4.10;;;;;;;19.71;70.74;100724.38;5070365;28;20216;-74
2023/05/30 07:51:12;;;;;;;4.37;3.10;;;;;;;19.93;71.51;100714.75;5071277;28;20201;-73
2023/05/30 07:53:37;;;;;;;5.87;3.70;;;;;;;19.93;70.16;100719.13;5073069;28;20185;-75
2023/05/30 07:56:02;;;;;;;6.63;3.67;;;;;;;20.07;69.78;100715.94;5071926;28;20181;-76
2023/05/30 07:58:28;;;;;;;6.23;3.40;;;;;;;20.24;69.08;100715.22;5072845;28;20185;-74
2023/05/30 08:00:53;;;;;;;6.87;3.40;;;;;;;20.32;69.05;100731.53;5069409;28;20283;-73
2023/05/30 08:03:19;;;;;;;7.67;3.73;;;;;;;20.23;68.13;100717.00;5066702;28;20405;-74
2023/05/30 08:05:46;;;;;;;6.13;3.50;;;;;;;20.21;68.77;100720.59;5068051;28;22155;-74
2023/05/30 08:08:12;;;;;;;7.57;3.53;;;;;;;20.44;69.89;100724.03;5071123;28;20238;-74
2023/05/30 08:10:37;;;;;;;7.83;3.80;;;;;;;20.56;68.11;100724.38;5069529;28;20213;-74
2023/05/30 08:13:03;;;;;;;6.40;3.37;;;;;;;20.66;68.17;100731.84;5073998;28;20185;-75
2023/05/30 08:15:28;;;;;;;6.43;3.63;;;;;;;20.82;67.18;100718.88;5070729;28;20197;-74
2023/05/30 08:17:56;;;;;;;4.93;3.50;;;;;;;20.85;66.86;100716.13;5074510;28;20185;-74
2023/05/30 08:20:22;;;;;;;6.90;3.50;;;;;;;20.88;66.96;100723.00;5072724;28;20201;-74
2023/05/30 08:22:47;;;;;;;6.13;3.77;;;;;;;20.78;67.46;100718.16;5071475;28;20196;-74
2023/05/30 08:25:13;;;;;;;7.67;3.40;;;;;;;20.56;68.32;100724.38;5072137;28;20189;-74
2023/05/30 08:27:39;;;;;;;6.00;3.60;;;;;;;20.48;67.36;100715.09;5072989;28;20209;-72
2023/05/30 08:30:05;;;;;;;4.37;3.20;;;;;;;20.72;67.64;100707.91;5071169;28;20204;-74
2023/05/30 08:32:32;;;;;;;6.97;3.80;;;;;;;20.69;66.98;100713.31;5069283;28;20178;-74
2023/05/30 08:34:58;;;;;;;6.53;4.27;;;;;;;20.59;66.25;100720.75;5073213;28;20557;-74
2023/05/30 08:37:23;;;;;;;8.60;3.77;;;;;;;20.52;66.77;100714.91;5073073;28;20179;-74
2023/05/30 08:39:49;;;;;;;6.00;3.60;;;;;;;20.59;67.20;100714.59;5072746;28;20213;-72
2023/05/30 08:42:14;;;;;;;8.30;3.63;;;;;;;20.45;67.52;100705.56;5055436;28;20186;-75
2023/05/30 08:44:40;;;;;;;9.23;3.50;;;;;;;20.48;67.81;100715.09;5072396;28;20731;-74
2023/05/30 08:47:12;;;;;;;5.73;3.23;;;;;;;20.49;67.02;100708.94;5071908;28;20181;-75
2023/05/30 08:49:40;;;;;;;7.70;3.80;;;;;;;20.45;67.02;100704.72;5070430;28;20217;-74
2023/05/30 08:52:16;;;;;;;5.87;3.77;;;;;;;20.50;66.85;100718.50;5071483;28;20330;-74
2023/05/30 08:54:54;;;;;;;6.50;3.47;;;;;;;20.31;66.25;100708.81;5071819;28;20211;-75
2023/05/30 08:57:26;;;;;;;9.70;3.57;;;;;;;20.28;66.08;100711.56;5049892;28;20187;-74
2023/05/30 08:59:54;;;;;;;6.20;3.13;;;;;;;20.23;65.91;100706.50;5052226;28;20673;-73
2023/05/30 09:02:21;;;;;;;6.40;3.30;;;;;;;20.19;66.21;100704.91;5054960;28;20196;-74
2023/05/30 09:04:47;;;;;;;8.13;3.93;;;;;;;20.19;67.23;100696.19;5072597;28;20195;-74
2023/05/30 09:07:14;;;;;;;5.03;3.37;;;;;;;20.27;66.90;100687.97;5053053;28;20285;-75
2023/05/30 09:09:41;;;;;;;9.00;3.97;;;;;;;20.31;66.17;100695.66;5070181;28;20217;-74
2023/05/30 09:12:08;;;;;;;6.93;3.70;;;;;;;20.26;66.04;100695.00;5069194;28;21052;-74
2023/05/30 09:14:34;;;;;;;5.90;3.80;;;;;;;20.29;66.29;100681.72;5070891;28;20205;-74
2023/05/30 09:16:59;;;;;;;7.77;4.13;;;;;;;20.36;66.21;100691.03;5071558;28;20736;-74
2023/05/30 09:19:26;;;;;;;4.10;3.50;;;;;;;20.20;66.09;100690.88;5074830;28;20755;-74
2023/05/30 09:21:51;;;;;;;6.47;3.47;;;;;;;20.26;66.67;100700.25;5070310;28;20622;-75
2023/05/30 09:24:17;;;;;;;7.40;3.47;;;;;;;20.28;66.95;100689.66;5071257;28;20195;-74
2023/05/30 09:27:05;;;;;;;9.13;4.30;;;;;;;20.40;66.33;100694.41;5073283;28;20205;-74
2023/05/30 09:29:42;;;;;;;6.53;3.70;;;;;;;20.41;65.21;100683.81;5072516;28;20216;-76
2023/05/30 09:32:07;;;;;;;5.80;3.83;;;;;;;20.51;66.08;100696.53;5071125;28;20184;-75
2023/05/30 09:34:34;;;;;;;8.23;3.47;;;;;;;20.65;66.90;100685.44;5069666;28;20258;-74
2023/05/30 09:36:59;;;;;;;6.00;3.30;;;;;;;20.73;65.37;100685.91;5068491;28;20185;-74
2023/05/30 09:39:26;;;;;;;8.60;3.53;;;;;;;20.72;65.61;100686.88;5068810;28;20214;-73
2023/05/30 09:41:55;;;;;;;7.13;3.83;;;;;;;20.69;65.79;100690.47;5056766;28;20280;-74
2023/05/30 09:44:20;;;;;;;8.20;4.07;;;;;;;20.75;65.66;100685.88;5067500;28;20225;-73
2023/05/30 09:46:45;;;;;;;11.23;4.00;;;;;;;20.82;66.42;100690.81;5069053;28;20197;-74
2023/05/30 09:49:12;;;;;;;5.33;3.30;;;;;;;20.89;66.54;100691.38;5065334;28;20324;-74
2023/05/30 09:51:38;;;;;;;7.60;3.90;;;;;;;20.90;65.38;100692.22;5070880;28;20192;-74
2023/05/30 09:54:05;;;;;;;6.50;3.63;;;;;;;20.85;65.42;100695.94;5075144;28;20185;-74
2023/05/30 09:56:38;;;;;;;6.63;3.70;;;;;;;20.94;65.27;100699.06;5067877;28;20194;-73
2023/05/30 09:59:07;;;;;;;7.80;3.60;;;;;;;20.84;64.75;100688.09;5070861;28;20188;-74
2023/05/30 10:01:43;;;;;;;5.50;3.50;;;;;;;20.99;65.27;100687.41;5047247;28;20189;-74
2023/05/30 10:04:22;;;;;;;6.97;3.87;;;;;;;21.10;65.57;100684.28;5069075;28;20274;-74
2023/05/30 10:06:51;;;;;;;11.37;3.97;;;;;;;21.14;64.84;100677.94;5068678;28;20680;-74
2023/05/30 10:09:20;;;;;;;7.27;3.80;;;;;;;21.22;64.72;100695.13;5069778;28;20634;-74
2023/05/30 10:11:46;;;;;;;6.90;3.97;;;;;;;21.17;65.61;100703.25;5069441;28;20193;-74
2023/05/30 10:14:13;;;;;;;4.67;3.27;;;;;;;21.21;64.40;100681.16;5066874;28;20190;-75
2023/05/30 10:16:53;;;;;;;9.73;3.60;;;;;;;21.21;64.58;100685.53;5070569;28;20555;-75
2023/05/30 10:19:24;;;;;;;6.03;3.60;;;;;;;21.25;64.00;100682.69;5066909;28;20864;-76
2023/05/30 10:21:53;;;;;;;5.57;3.60;;;;;;;21.15;64.09;100687.56;5048387;28;20201;-75
2023/05/30 10:24:19;;;;;;;5.53;3.10;;;;;;;21.10;63.95;100684.28;5049538;28;20177;-76
2023/05/30 10:26:50;;;;;;;5.87;3.23;;;;;;;21.24;64.10;100665.22;5072687;28;20650;-75
2023/05/30 10:29:21;;;;;;;5.37;3.30;;;;;;;21.39;64.80;100673.31;5072859;28;20239;-74
2023/05/30 10:31:49;;;;;;;5.93;3.03;;;;;;;21.52;64.35;100653.34;5070579;28;20185;-76
2023/05/30 10:34:17;;;;;;;4.83;2.97;;;;;;;21.60;65.00;100671.44;5071220;28;22885;-73
2023/05/30 10:36:44;;;;;;;12.67;3.77;;;;;;;21.56;62.53;100661.94;5051295;28;20196;-74
2023/05/30 10:39:43;;;;;;;8.97;3.40;;;;;;;21.49;63.38;100671.91;5071060;28;20197;-74
2023/05/30 10:42:23;;;;;;;4.67;3.30;;;;;;;21.61;63.88;100662.59;5073769;28;20223;-73
2023/05/30 10:45:16;;;;;;;5.60;3.47;;;;;;;21.62;63.00;100651.16;5050193;28;20668;-73
2023/05/30 10:47:45;;;;;;;7.83;3.50;;;;;;;21.73;63.42;100674.28;5070728;28;20206;-74
2023/05/30 10:50:19;;;;;;;4.77;3.13;;;;;;;21.81;63.46;100643.16;5046874;28;20206;-73
2023/05/30 10:52:46;;;;;;;5.07;3.20;;;;;;;21.92;62.83;100650.53;5067286;28;20212;-74
2023/05/30 10:55:11;;;;;;;5.77;3.27;;;;;;;22.02;62.27;100661.44;5072670;28;21414;-74
2023/05/30 10:57:36;;;;;;;5.70;3.40;;;;;;;22.01;63.35;100639.50;5067659;28;20186;-74
2023/05/30 11:00:17;;;;;;;4.93;3.00;;;;;;;21.96;62.64;100645.94;5069226;28;20340;-73
2023/05/30 11:02:48;;;;;;;8.13;3.40;;;;;;;22.04;63.92;100634.09;5071946;28;20182;-72
2023/05/30 11:05:30;;;;;;;3.90;3.20;;;;;;;22.15;62.65;100643.22;5069501;28;20188;-72
2023/05/30 11:07:57;;;;;;;5.03;3.40;;;;;;;22.05;62.72;100642.84;5072701;28;20925;-72
2023/05/30 11:10:27;;;;;;;7.00;3.67;;;;;;;22.07;62.81;100633.06;5072253;28;20665;-73
2023/05/30 11:13:07;;;;;;;7.77;3.70;;;;;;;22.20;62.17;100651.75;5054020;28;20688;-73
2023/05/30 11:15:33;;;;;;;17.17;4.47;;;;;;;22.20;60.53;100633.28;5070558;28;20205;-73
2023/05/30 11:17:59;;;;;;;12.03;3.87;;;;;;;22.14;61.60;100628.31;5052736;28;20177;-73
2023/05/30 11:20:26;;;;;;;9.73;3.77;;;;;;;22.28;61.69;100617.91;5065600;28;20288;-72
2023/05/30 11:23:01;;;;;;;4.93;3.17;;;;;;;22.36;61.78;100615.72;5068025;28;20263;-73
2023/05/30 11:25:28;;;;;;;4.53;3.43;;;;;;;22.38;61.64;100624.41;5070390;28;20280;-73